»·PEaware :: N904JD L71-KNUC

N904JD :: L71-KNUC

FLIGHT INFORMATION

Flight Status: Arrived
Operator: Privately registered:
United States
More flights under this callsign
Pilot: Janevah W. (242)
Aircraft: CESSNA 172 SKYHAWK
(C172)
More flights by this aircraft type
Origin: L71 California City Mun
United States
Destination: KNUC San Clemente I NALF
United States
More flights between these airports :: More routes between these airports
Route: PMD V201 LAX V64 LIMBO SXC
File this flight plan on PilotEdge
Remarks: AH / V /
Altitude:
(Current/Filed)
8,000ft
Speed:
(Current/Filed)
112kts
Departed: 01-May-14 06:43 PM
Arrived: 01-May-14 07:32 PM
Distance/Time
Traveled:
131nm/0:49
Distance/Time
To Go:
Arrived

Flight Plot

Page will automatically refresh every two minutes.


Map Options




Map Legend


Flown Route
Filed Route
Departure Airport
Arrival Airport
Navaid (VOR, NDB)
Fix

Horizontal Profiles

Position Reports

Time Latitude Longitude Heading Altitude Ground
Speed
01-May-14 18:31 35.150383 -118.015839 251 2457ft 0kts
01-May-14 18:32 35.150383 -118.015839 251 2457ft 0kts
01-May-14 18:33 35.150383 -118.015839 251 2457ft 0kts
01-May-14 18:34 35.150847 -118.014764 83 2457ft 9kts
01-May-14 18:35 35.150879 -118.014448 81 2457ft 0kts
01-May-14 18:36 35.150880 -118.014448 81 2457ft 0kts
01-May-14 18:37 35.151096 -118.013758 354 2457ft 10kts
01-May-14 18:38 35.152694 -118.007406 75 2457ft 12kts
01-May-14 18:39 35.152959 -118.006920 343 2457ft 0kts
01-May-14 18:40 35.152975 -118.008520 255 2457ft 38kts
01-May-14 18:41 35.146835 -118.029818 228 2808ft 72kts
01-May-14 18:42 35.129220 -118.042429 190 3322ft 77kts
01-May-14 18:43 35.106289 -118.040404 175 3851ft 87kts
01-May-14 18:44 35.082053 -118.038359 172 4440ft 88kts
01-May-14 18:45 35.059191 -118.030658 151 5041ft 84kts
01-May-14 18:46 35.039015 -118.024629 175 5505ft 83kts
01-May-14 18:47 35.016240 -118.022842 175 6025ft 82kts
01-May-14 18:48 34.992769 -118.022707 181 6528ft 82kts
01-May-14 18:49 34.970190 -118.025500 186 6986ft 82kts
01-May-14 18:50 34.951323 -118.029123 187 7348ft 81kts
01-May-14 18:51 34.929235 -118.032992 184 7753ft 81kts
01-May-14 18:52 34.904770 -118.035578 182 7904ft 106kts
01-May-14 18:53 34.874383 -118.037725 183 7827ft 111kts
01-May-14 18:54 34.842518 -118.041024 185 7828ft 111kts
01-May-14 18:55 34.791564 -118.046914 184 7828ft 111kts
01-May-14 18:56 34.729819 -118.053363 184 7828ft 111kts
01-May-14 18:57 34.667465 -118.060025 184 7828ft 111kts
01-May-14 18:58 34.609230 -118.077899 221 7839ft 109kts
01-May-14 18:59 34.552729 -118.105058 199 7828ft 111kts
01-May-14 19:00 34.514999 -118.126852 203 7828ft 111kts
01-May-14 19:01 34.439599 -118.167180 203 7828ft 110kts
01-May-14 19:02 34.388196 -118.194830 203 7828ft 110kts
01-May-14 19:03 34.328269 -118.226998 203 7959ft 109kts
01-May-14 19:04 34.272162 -118.257043 203 7957ft 110kts
01-May-14 19:05 34.216025 -118.286783 198 7957ft 110kts
01-May-14 19:06 34.170377 -118.291561 197 7963ft 109kts
01-May-14 19:07 34.101867 -118.333355 205 7957ft 110kts
01-May-14 19:08 34.049138 -118.363733 205 7957ft 110kts
01-May-14 19:09 33.993813 -118.396379 205 7969ft 110kts
01-May-14 19:10 33.937023 -118.429729 205 7969ft 110kts
01-May-14 19:11 33.900441 -118.437895 182 7969ft 110kts
01-May-14 19:20 33.339100 -118.397900 0 3877ft 0kts
01-May-14 19:21 33.291764 -118.384165 178 3869ft 86kts
01-May-14 19:22 33.246790 -118.397834 201 3869ft 83kts
01-May-14 19:23 33.203226 -118.415051 190 3914ft 78kts
01-May-14 19:24 33.155396 -118.434737 203 3266ft 81kts
01-May-14 19:25 33.110801 -118.446137 195 2888ft 88kts
01-May-14 19:26 33.067366 -118.468935 222 2279ft 88kts
01-May-14 19:27 33.045699 -118.522376 247 1385ft 91kts
01-May-14 19:28 33.027573 -118.574521 246 243ft 64kts
01-May-14 19:29 33.022548 -118.588971 247 185ft 42kts
01-May-14 19:30 33.018757 -118.595911 132 185ft 10kts
01-May-14 19:31 33.021168 -118.588585 67 185ft 37kts
01-May-14 19:32 33.020839 -118.585520 158 185ft 12kts
01-May-14 19:33 33.019621 -118.585228 232 185ft 0kts
01-May-14 19:34 33.019621 -118.585228 232 185ft 0kts
01-May-14 19:35 33.019621 -118.585228 232 185ft 0kts
01-May-14 19:36 33.019621 -118.585228 232 185ft 0kts
01-May-14 19:37 33.019621 -118.585228 232 185ft 0kts

Navigation Log

Ident Type
Flight plan parsing failed, navigation log unavailable